Time;durP1;ratioP1;P1;durP2;ratioP2;P2;SDS_P1;SDS_P2;PMS_P1;PMS_P2;Temp;Humidity;BMP_temperature;BMP_pressure;BME280_temperature;BME280_humidity;BME280_pressure;Samples;Min_cycle;Max_cycle;Signal;HPM_P1;HPM_P2
2021/09/17 00:02:10;;;;;;;10.60;9.00;;;;;;;13.27;100.00;95028.25;5054151;28;20029;-63
2021/09/17 00:04:35;;;;;;;10.13;8.48;;;;;;;13.27;100.00;95025.56;5053599;28;20508;-62
2021/09/17 00:07:00;;;;;;;11.15;8.65;;;;;;;13.26;100.00;95032.03;5054112;28;20028;-63
2021/09/17 00:09:26;;;;;;;10.52;8.20;;;;;;;13.25;100.00;95027.75;5053848;28;20035;-63
2021/09/17 00:11:51;;;;;;;14.63;9.23;;;;;;;13.24;100.00;95029.63;5053853;28;20020;-62
2021/09/17 00:14:17;;;;;;;12.63;9.93;;;;;;;13.23;100.00;95025.31;5035970;28;20025;-63
2021/09/17 00:16:42;;;;;;;13.88;9.50;;;;;;;13.21;100.00;95022.13;5053458;28;20136;-63
2021/09/17 00:19:08;;;;;;;12.95;9.75;;;;;;;13.20;100.00;95020.50;5035851;28;20402;-62
2021/09/17 00:21:34;;;;;;;14.48;10.60;;;;;;;13.19;100.00;95018.09;5052636;28;20107;-63
2021/09/17 00:24:01;;;;;;;15.18;11.32;;;;;;;13.16;100.00;95015.97;5053648;28;20032;-63
2021/09/17 00:26:27;;;;;;;14.55;11.48;;;;;;;13.13;100.00;95003.06;5053674;28;20027;-63
2021/09/17 00:28:55;;;;;;;16.05;12.05;;;;;;;13.16;100.00;95013.28;5053478;28;20086;-63
2021/09/17 00:31:20;;;;;;;17.77;12.27;;;;;;;13.18;100.00;95011.91;5053599;28;20021;-63
2021/09/17 00:33:46;;;;;;;18.48;11.85;;;;;;;13.18;100.00;95011.09;5053249;28;20426;-63
2021/09/17 00:36:14;;;;;;;17.10;12.35;;;;;;;13.21;100.00;95007.88;5053380;28;20438;-62
2021/09/17 00:38:40;;;;;;;16.05;12.50;;;;;;;13.24;100.00;95018.06;5051995;28;20024;-63
2021/09/17 00:41:05;;;;;;;17.40;12.05;;;;;;;13.25;100.00;95012.41;5052541;28;20044;-62
2021/09/17 00:43:31;;;;;;;17.38;12.65;;;;;;;13.29;100.00;95015.34;5053516;28;20025;-62
2021/09/17 00:45:56;;;;;;;14.15;11.70;;;;;;;13.28;100.00;95013.72;5053228;28;20111;-63
2021/09/17 00:48:27;;;;;;;18.25;12.95;;;;;;;13.29;100.00;95009.94;5052973;28;20028;-63
2021/09/17 00:50:53;;;;;;;18.25;12.63;;;;;;;13.26;100.00;95003.25;5053185;28;20522;-63
2021/09/17 00:53:33;;;;;;;16.58;12.85;;;;;;;13.25;100.00;95012.41;5053018;28;20037;-63
2021/09/17 00:55:59;;;;;;;18.38;12.88;;;;;;;13.25;100.00;95017.00;5053206;28;20025;-63
2021/09/17 00:58:24;;;;;;;16.23;12.52;;;;;;;13.25;100.00;95017.78;5053123;28;20036;-62
2021/09/17 01:00:50;;;;;;;18.27;12.13;;;;;;;13.25;100.00;95019.69;5052888;28;20025;-63
2021/09/17 01:03:15;;;;;;;17.45;11.85;;;;;;;13.22;100.00;95018.34;5052660;28;20028;-63
2021/09/17 01:05:40;;;;;;;20.05;12.57;;;;;;;13.23;100.00;95021.81;5053015;28;20025;-63
2021/09/17 01:08:09;;;;;;;18.17;12.50;;;;;;;13.18;100.00;95017.28;5052030;28;20035;-62
2021/09/17 01:10:36;;;;;;;18.58;12.52;;;;;;;13.17;100.00;95020.25;5052782;28;20476;-63
2021/09/17 01:13:02;;;;;;;15.98;12.18;;;;;;;13.13;100.00;95021.88;5050659;28;20033;-63
2021/09/17 01:15:27;;;;;;;15.93;11.75;;;;;;;13.07;100.00;95019.25;5051331;28;20442;-61
2021/09/17 01:17:59;;;;;;;14.77;12.50;;;;;;;13.01;100.00;95015.00;5043321;28;20021;-62
2021/09/17 01:20:24;;;;;;;19.42;12.38;;;;;;;12.96;100.00;95025.78;5020866;28;20090;-63
2021/09/17 01:22:50;;;;;;;15.77;12.23;;;;;;;12.92;100.00;95027.44;5033510;28;20021;-63
2021/09/17 01:25:23;;;;;;;15.55;11.50;;;;;;;12.87;100.00;95024.78;5051687;28;20414;-63
2021/09/17 01:27:50;;;;;;;17.23;12.27;;;;;;;12.82;100.00;95029.41;5050932;28;20090;-62
2021/09/17 01:30:21;;;;;;;16.38;12.45;;;;;;;12.75;100.00;95024.34;5033517;28;20079;-62
2021/09/17 01:32:47;;;;;;;14.85;11.82;;;;;;;12.69;100.00;95026.25;5051123;28;20712;-63
2021/09/17 01:35:17;;;;;;;15.27;12.20;;;;;;;12.65;100.00;95019.03;5033705;28;20460;-63
2021/09/17 01:37:47;;;;;;;18.55;13.35;;;;;;;12.62;100.00;95015.03;5033573;28;20399;-63
2021/09/17 01:40:18;;;;;;;18.10;12.13;;;;;;;12.60;100.00;95016.41;5051482;28;20029;-63
2021/09/17 01:42:44;;;;;;;17.75;13.00;;;;;;;12.57;100.00;95017.72;5051088;28;20032;-63
2021/09/17 01:45:13;;;;;;;22.35;13.13;;;;;;;12.55;100.00;95013.72;5051443;28;20033;-63
2021/09/17 01:47:48;;;;;;;19.00;12.65;;;;;;;12.51;100.00;95007.31;5034070;28;20163;-62
2021/09/17 01:50:13;;;;;;;15.45;11.65;;;;;;;12.50;100.00;95014.56;5051410;28;20025;-63
2021/09/17 01:52:39;;;;;;;15.82;12.63;;;;;;;12.48;100.00;95004.09;5049759;28;20063;-63
2021/09/17 01:55:05;;;;;;;17.05;12.68;;;;;;;12.47;100.00;95005.16;5051256;28;20040;-63
2021/09/17 01:57:31;;;;;;;18.27;12.15;;;;;;;12.44;100.00;95007.59;5051401;28;20029;-62
2021/09/17 01:59:56;;;;;;;19.63;13.15;;;;;;;12.41;100.00;95008.97;5051422;28;20499;-62
2021/09/17 02:02:27;;;;;;;18.30;13.07;;;;;;;12.37;100.00;95004.41;5051403;28;20375;-63
2021/09/17 02:04:53;;;;;;;19.85;13.50;;;;;;;12.36;100.00;95010.88;5049444;28;20057;-63
2021/09/17 02:07:18;;;;;;;18.58;13.65;;;;;;;12.35;100.00;95009.28;5049988;28;20055;-62
2021/09/17 02:09:50;;;;;;;21.30;13.43;;;;;;;12.35;100.00;95007.38;5049956;28;20028;-63
2021/09/17 02:12:16;;;;;;;20.25;13.43;;;;;;;12.38;100.00;95006.84;5049955;28;20496;-63
2021/09/17 02:14:41;;;;;;;19.38;13.35;;;;;;;12.38;100.00;94998.78;5045292;28;20044;-62
2021/09/17 02:17:07;;;;;;;18.58;13.70;;;;;;;12.38;100.00;94990.72;5033327;28;20047;-63
2021/09/17 02:19:33;;;;;;;17.77;13.45;;;;;;;12.34;100.00;94996.94;5051100;28;20045;-63
2021/09/17 02:21:58;;;;;;;16.88;12.98;;;;;;;12.30;100.00;94996.69;5047538;28;20437;-62
2021/09/17 02:24:27;;;;;;;17.83;12.75;;;;;;;12.27;100.00;94991.06;5049387;28;20033;-62
2021/09/17 02:26:58;;;;;;;14.57;11.25;;;;;;;12.23;100.00;94992.69;5051243;28;20487;-62
2021/09/17 02:29:27;;;;;;;17.88;12.20;;;;;;;12.22;100.00;95001.84;5051088;28;20116;-63
2021/09/17 02:31:52;;;;;;;16.58;12.32;;;;;;;12.22;100.00;94999.16;5049933;28;20029;-63
2021/09/17 02:34:24;;;;;;;20.98;12.55;;;;;;;12.22;100.00;94999.16;5049321;28;20031;-62
2021/09/17 02:36:50;;;;;;;16.23;12.45;;;;;;;12.22;100.00;94999.94;5050984;28;20036;-63
2021/09/17 02:39:21;;;;;;;17.20;12.20;;;;;;;12.23;100.00;94995.38;5053647;28;20416;-63
2021/09/17 02:41:49;;;;;;;14.50;11.68;;;;;;;12.23;100.00;94987.31;5053538;28;20131;-63
2021/09/17 02:44:18;;;;;;;15.10;12.10;;;;;;;12.26;100.00;94992.13;5054273;28;20357;-63
2021/09/17 02:46:43;;;;;;;14.18;11.45;;;;;;;12.27;100.00;94994.56;5053471;28;20108;-63
2021/09/17 02:49:11;;;;;;;13.68;10.70;;;;;;;12.24;100.00;94991.59;5054420;28;20112;-63
2021/09/17 02:51:37;;;;;;;16.05;10.63;;;;;;;12.20;100.00;94980.63;5054849;28;20024;-62
2021/09/17 02:54:05;;;;;;;17.20;10.80;;;;;;;12.17;100.00;94983.88;5036283;28;20033;-62
2021/09/17 02:56:34;;;;;;;14.02;9.85;;;;;;;12.15;100.00;94988.69;5054679;28;20056;-62
2021/09/17 02:58:59;;;;;;;12.63;10.27;;;;;;;12.15;100.00;94986.00;5036562;28;20029;-63
2021/09/17 03:01:25;;;;;;;14.50;10.40;;;;;;;12.15;100.00;94992.19;5054541;28;20492;-62
2021/09/17 03:03:50;;;;;;;13.68;9.68;;;;;;;12.16;100.00;94993.00;5053598;28;20056;-63
2021/09/17 03:06:19;;;;;;;13.60;9.65;;;;;;;12.18;100.00;94988.16;5054419;28;20067;-63
2021/09/17 03:08:44;;;;;;;14.90;9.60;;;;;;;12.17;100.00;94987.38;5054096;28;20024;-62
2021/09/17 03:11:09;;;;;;;12.50;9.57;;;;;;;12.19;100.00;94992.44;5036451;28;20021;-63
2021/09/17 03:13:35;;;;;;;12.82;9.68;;;;;;;12.19;100.00;94987.88;5053644;28;20033;-62
2021/09/17 03:16:02;;;;;;;14.93;10.65;;;;;;;12.19;100.00;94992.44;5054107;28;20057;-62
2021/09/17 03:18:34;;;;;;;14.68;9.98;;;;;;;12.17;100.00;94984.69;5054020;28;20384;-62
2021/09/17 03:21:03;;;;;;;13.73;9.57;;;;;;;12.15;100.00;94986.00;5036296;28;20496;-63
2021/09/17 03:23:31;;;;;;;14.13;9.32;;;;;;;12.15;100.00;94984.13;5053569;28;20052;-62
2021/09/17 03:25:57;;;;;;;18.33;10.07;;;;;;;12.15;100.00;94986.00;5036076;28;20025;-62
2021/09/17 03:28:23;;;;;;;16.55;10.25;;;;;;;12.13;100.00;94983.59;5054024;28;20045;-62
2021/09/17 03:30:49;;;;;;;13.82;10.27;;;;;;;12.12;100.00;94984.69;5035915;28;20118;-63
2021/09/17 03:33:15;;;;;;;13.00;9.70;;;;;;;12.10;100.00;94986.84;5053393;28;20033;-63
2021/09/17 03:35:41;;;;;;;13.40;10.88;;;;;;;12.11;100.00;94988.44;5053719;28;20037;-62
2021/09/17 03:38:07;;;;;;;13.80;10.93;;;;;;;12.10;100.00;94986.84;5053720;28;20079;-63
2021/09/17 03:40:37;;;;;;;14.10;11.45;;;;;;;12.11;100.00;94987.66;5035789;28;20028;-63
2021/09/17 03:43:03;;;;;;;14.52;10.57;;;;;;;12.13;100.00;94994.34;5053220;28;20028;-62
2021/09/17 03:45:36;;;;;;;13.45;10.65;;;;;;;12.12;100.00;94984.69;5035643;28;20025;-62
2021/09/17 03:48:24;;;;;;;;;;;;;;;12.13;100.00;94993.53;5054159;28;20029;-63
2021/09/17 03:50:50;;;;;;;12.73;11.00;;;;;;;12.13;100.00;94985.50;5040367;28;19920;-63
2021/09/17 03:53:18;;;;;;;16.05;11.88;;;;;;;12.15;100.00;94984.13;5052991;28;20032;-62
2021/09/17 03:55:44;;;;;;;15.32;11.18;;;;;;;12.16;100.00;94985.75;5053489;28;20182;-61
2021/09/17 03:58:09;;;;;;;16.48;11.27;;;;;;;12.15;100.00;94981.44;5053338;28;20511;-63
2021/09/17 04:00:36;;;;;;;16.70;11.38;;;;;;;12.15;100.00;94989.50;5053381;28;20128;-62
2021/09/17 04:03:04;;;;;;;16.83;11.40;;;;;;;12.18;100.00;94980.09;5052965;28;20070;-63
2021/09/17 04:05:39;;;;;;;14.07;10.70;;;;;;;12.15;100.00;94984.13;5051879;28;20155;-63
2021/09/17 04:08:10;;;;;;;17.23;11.30;;;;;;;12.14;100.00;94985.22;5047946;28;20025;-59
2021/09/17 04:10:35;;;;;;;18.27;12.60;;;;;;;12.14;100.00;94987.91;5053727;28;20033;-55
2021/09/17 04:13:01;;;;;;;14.88;10.93;;;;;;;12.14;100.00;94984.41;5053896;28;20383;-58
2021/09/17 04:15:26;;;;;;;15.30;11.00;;;;;;;12.12;100.00;94982.00;5053988;28;20032;-52
2021/09/17 04:17:52;;;;;;;15.35;10.43;;;;;;;12.10;100.00;94981.47;5052939;28;20029;-58
2021/09/17 04:20:17;;;;;;;17.70;11.40;;;;;;;12.10;100.00;94991.41;5042893;28;20432;-55
2021/09/17 04:22:46;;;;;;;15.32;11.10;;;;;;;12.10;100.00;94992.22;5053367;28;20032;-58
2021/09/17 04:25:12;;;;;;;14.20;10.90;;;;;;;12.12;100.00;94991.94;5053687;28;20028;-56
2021/09/17 04:27:43;;;;;;;16.75;11.10;;;;;;;12.09;100.00;94992.50;5053596;28;20029;-54
2021/09/17 04:30:18;;;;;;;15.30;11.85;;;;;;;12.12;100.00;94991.94;5053597;28;20056;-57
2021/09/17 04:32:47;;;;;;;16.40;11.90;;;;;;;12.11;100.00;94996.50;5035734;28;20028;-56
2021/09/17 04:35:13;;;;;;;17.13;11.32;;;;;;;12.11;100.00;94990.34;5053323;28;20037;-57
2021/09/17 04:37:53;;;;;;;15.43;11.32;;;;;;;12.10;100.00;94989.53;5053359;28;20027;-56
2021/09/17 04:40:19;;;;;;;14.95;11.05;;;;;;;12.10;100.00;94999.47;5053560;28;20013;-56
2021/09/17 04:42:44;;;;;;;15.13;10.93;;;;;;;12.08;100.00;94994.38;5053261;28;20108;-59
2021/09/17 04:45:12;;;;;;;20.38;11.27;;;;;;;12.07;100.00;94986.63;5053269;28;20052;-56
2021/09/17 04:47:41;;;;;;;14.38;10.57;;;;;;;12.06;100.00;94993.06;5035365;28;20035;-56
2021/09/17 04:50:10;;;;;;;15.93;11.38;;;;;;;12.04;100.00;94987.94;5053110;28;20029;-56
2021/09/17 04:52:37;;;;;;;14.95;11.32;;;;;;;12.05;100.00;94996.81;5053258;28;20059;-53
2021/09/17 04:55:11;;;;;;;17.58;11.30;;;;;;;12.04;100.00;94992.50;5053042;28;20577;-53
2021/09/17 04:57:37;;;;;;;16.23;11.15;;;;;;;12.04;100.00;94993.31;5053440;28;20025;-54
2021/09/17 05:00:04;;;;;;;17.00;11.68;;;;;;;12.06;100.00;94991.19;5052953;28;20518;-54
2021/09/17 05:02:30;;;;;;;16.48;12.07;;;;;;;12.09;100.00;94998.69;5047980;28;20041;-55
2021/09/17 05:04:55;;;;;;;17.35;12.15;;;;;;;12.10;100.00;94997.59;5044270;28;20408;-58
2021/09/17 05:07:20;;;;;;;17.48;12.38;;;;;;;12.11;100.00;94990.34;5035499;28;20028;-56
2021/09/17 05:09:46;;;;;;;16.13;12.13;;;;;;;12.13;100.00;94993.53;5048542;28;20025;-53
2021/09/17 05:12:11;;;;;;;18.58;12.75;;;;;;;12.18;100.00;94990.84;5047742;28;20029;-57
2021/09/17 05:14:36;;;;;;;17.23;12.30;;;;;;;12.18;100.00;94980.91;5052835;28;20434;-54
2021/09/17 05:17:02;;;;;;;19.23;14.00;;;;;;;12.21;100.00;94992.16;5052513;28;20059;-56
2021/09/17 05:19:30;;;;;;;16.45;12.52;;;;;;;12.23;100.00;94984.63;5052792;28;20116;-57
2021/09/17 05:21:59;;;;;;;20.20;13.77;;;;;;;12.23;100.00;94980.06;5051804;28;20487;-56
2021/09/17 05:24:25;;;;;;;18.50;13.68;;;;;;;12.24;100.00;94992.41;5044712;28;20476;-57
2021/09/17 05:26:51;;;;;;;21.25;13.18;;;;;;;12.24;100.00;94989.72;5050947;28;20028;-57
2021/09/17 05:29:17;;;;;;;18.55;13.88;;;;;;;12.26;100.00;94989.44;5050366;28;20045;-57
2021/09/17 05:31:43;;;;;;;20.00;13.23;;;;;;;12.27;100.00;94991.88;5041365;28;20075;-55
2021/09/17 05:34:08;;;;;;;18.83;13.82;;;;;;;12.30;100.00;94987.81;5032947;28;20033;-59
2021/09/17 05:36:43;;;;;;;18.92;13.10;;;;;;;12.32;100.00;94985.66;5025870;28;20021;-55
2021/09/17 05:39:09;;;;;;;21.77;13.38;;;;;;;12.32;100.00;94982.97;5034550;28;20021;-54
2021/09/17 05:41:34;;;;;;;17.92;12.57;;;;;;;12.32;100.00;94983.78;5052318;28;20099;-53
2021/09/17 05:44:00;;;;;;;18.52;12.52;;;;;;;12.33;100.00;94979.22;5052172;28;20028;-57
2021/09/17 05:46:25;;;;;;;18.17;12.98;;;;;;;12.35;100.00;94993.16;5052191;28;20041;-57
2021/09/17 05:48:51;;;;;;;18.23;12.88;;;;;;;12.35;100.00;94985.09;5029928;28;20383;-56
2021/09/17 05:51:16;;;;;;;18.95;13.07;;;;;;;12.35;100.00;94983.22;5049112;28;20462;-58
2021/09/17 05:53:42;;;;;;;19.80;12.77;;;;;;;12.37;100.00;94982.94;5035130;28;20017;-57
2021/09/17 05:56:07;;;;;;;16.30;12.20;;;;;;;12.40;100.00;94985.09;5033022;28;20027;-57
2021/09/17 05:58:34;;;;;;;16.15;12.45;;;;;;;12.43;100.00;94981.84;5032257;28;20395;-57
2021/09/17 06:01:01;;;;;;;17.08;12.25;;;;;;;12.46;100.00;94979.38;5034798;28;20032;-59
2021/09/17 06:03:26;;;;;;;17.25;11.60;;;;;;;12.48;100.00;94979.09;5044280;28;20045;-56
2021/09/17 06:05:52;;;;;;;20.13;12.32;;;;;;;12.53;100.00;94980.97;5037287;28;20450;-56
2021/09/17 06:08:18;;;;;;;16.25;12.93;;;;;;;12.53;100.00;94976.38;5047159;28;20480;-54
2021/09/17 06:10:44;;;;;;;18.52;12.45;;;;;;;12.58;100.00;94978.22;5050756;28;20017;-54
2021/09/17 06:13:09;;;;;;;17.83;12.77;;;;;;;12.61;100.00;94970.44;5051992;28;20104;-58
2021/09/17 06:15:34;;;;;;;19.65;12.02;;;;;;;12.64;100.00;94975.25;4998592;28;20058;-59
2021/09/17 06:18:00;;;;;;;18.95;12.80;;;;;;;12.69;100.00;94969.00;5018545;28;20445;-58
2021/09/17 06:20:25;;;;;;;18.85;12.25;;;;;;;12.69;100.00;94967.13;5035566;28;20464;-52
2021/09/17 06:22:56;;;;;;;20.55;12.57;;;;;;;12.73;100.00;94967.38;5048385;28;20472;-59
2021/09/17 06:25:23;;;;;;;17.05;11.82;;;;;;;12.75;100.00;94963.31;5032041;28;20020;-56
2021/09/17 06:27:50;;;;;;;17.15;11.77;;;;;;;12.81;100.00;94971.34;5036865;28;20479;-58
2021/09/17 06:30:19;;;;;;;16.35;11.90;;;;;;;12.85;100.00;94967.81;5047844;28;20083;-60
2021/09/17 06:32:45;;;;;;;17.73;12.20;;;;;;;12.86;100.00;94969.41;5039533;28;20376;-59
2021/09/17 06:35:11;;;;;;;17.85;12.27;;;;;;;12.93;100.00;94966.41;5054203;28;20071;-58
2021/09/17 06:37:52;;;;;;;14.82;11.32;;;;;;;12.94;100.00;94966.13;5053856;28;20024;-57
2021/09/17 06:40:20;;;;;;;14.95;11.45;;;;;;;12.96;100.00;94969.34;5045203;28;20503;-57
2021/09/17 06:42:45;;;;;;;18.75;11.75;;;;;;;13.03;100.00;94966.34;5055635;28;20111;-58
2021/09/17 06:45:17;;;;;;;17.55;11.90;;;;;;;13.06;100.00;94966.56;5055484;28;20104;-57
2021/09/17 06:47:44;;;;;;;15.80;12.10;;;;;;;13.07;100.00;94970.84;5055759;28;20067;-58
2021/09/17 06:50:15;;;;;;;17.08;12.23;;;;;;;13.17;100.00;94966.47;5054202;28;20024;-58
2021/09/17 06:52:47;;;;;;;15.20;11.70;;;;;;;13.19;100.00;94965.13;5055524;28;20024;-58
2021/09/17 06:55:13;;;;;;;17.40;11.85;;;;;;;13.19;100.00;94962.44;5055391;28;20063;-60
2021/09/17 06:57:59;;;;;;;16.75;12.05;;;;;;;13.17;100.00;94959.19;5055756;28;20361;-59
2021/09/17 07:00:30;;;;;;;16.75;11.55;;;;;;;13.21;100.00;94959.47;5055422;28;20044;-60
2021/09/17 07:02:57;;;;;;;23.75;12.27;;;;;;;13.25;100.00;94950.56;5047727;28;20028;-63
2021/09/17 07:05:26;;;;;;;17.35;12.05;;;;;;;13.30;100.00;94953.19;5055159;28;20048;-59
2021/09/17 07:07:52;;;;;;;16.80;11.32;;;;;;;13.33;100.00;94957.19;5037299;28;20062;-60
2021/09/17 07:10:23;;;;;;;17.92;12.18;;;;;;;13.43;100.00;94951.69;5055091;28;20056;-59
2021/09/17 07:12:48;;;;;;;18.23;11.27;;;;;;;13.54;100.00;94953.19;5055122;28;20025;-55
2021/09/17 07:15:16;;;;;;;15.27;11.68;;;;;;;13.64;100.00;94941.50;5054989;28;20173;-56
2021/09/17 07:17:45;;;;;;;15.07;10.75;;;;;;;13.78;100.00;94944.28;5054958;28;20083;-55
2021/09/17 07:20:11;;;;;;;14.50;11.18;;;;;;;13.85;100.00;94942.06;5037155;28;20043;-58
2021/09/17 07:22:36;;;;;;;16.52;11.18;;;;;;;13.95;100.00;94931.16;5054921;28;20104;-57
2021/09/17 07:25:04;;;;;;;17.25;12.07;;;;;;;14.11;100.00;94937.13;5053669;28;20108;-55
2021/09/17 07:27:30;;;;;;;15.93;11.18;;;;;;;14.35;100.00;94920.94;5054782;28;20033;-57
2021/09/17 07:29:59;;;;;;;15.98;10.95;;;;;;;14.52;100.00;94915.81;5054635;28;20055;-59
2021/09/17 07:32:24;;;;;;;14.45;10.50;;;;;;;14.58;100.00;94897.69;5054560;28;20029;-60
2021/09/17 07:34:50;;;;;;;16.00;11.90;;;;;;;14.61;100.00;94892.50;5036796;28;20472;-59
2021/09/17 07:37:17;;;;;;;14.25;10.80;;;;;;;14.67;100.00;94883.25;5053619;28;20033;-61
2021/09/17 07:39:46;;;;;;;14.95;10.60;;;;;;;14.65;100.00;94866.56;5054724;28;20096;-57
2021/09/17 07:42:19;;;;;;;14.88;10.40;;;;;;;14.69;100.00;94866.78;5036656;28;20108;-56
2021/09/17 07:44:48;;;;;;;15.52;10.18;;;;;;;15.06;100.00;94850.44;5054340;28;20064;-57
2021/09/17 07:47:19;;;;;;;15.65;10.38;;;;;;;15.16;100.00;94844.06;5036571;28;20033;-57
2021/09/17 07:49:48;;;;;;;13.93;9.02;;;;;;;15.27;100.00;94820.38;5036456;28;20055;-56
2021/09/17 07:52:13;;;;;;;13.48;8.90;;;;;;;15.46;100.00;94794.09;5036501;28;20028;-56
2021/09/17 07:54:57;;;;;;;15.55;9.05;;;;;;;15.84;100.00;94772.22;5036359;28;20506;-58
2021/09/17 07:57:26;;;;;;;10.88;8.35;;;;;;;16.07;100.00;94746.84;5054190;28;20039;-61
2021/09/17 07:59:51;;;;;;;11.30;7.88;;;;;;;16.27;100.00;94710.38;5054073;28;20023;-59
2021/09/17 08:02:17;;;;;;;10.40;7.32;;;;;;;16.31;100.00;94668.13;5036243;28;20108;-59
2021/09/17 08:04:42;;;;;;;11.25;8.00;;;;;;;16.39;100.00;94648.47;5053951;28;20079;-62
2021/09/17 08:07:08;;;;;;;10.35;7.95;;;;;;;16.56;100.00;94636.91;5054100;28;20025;-58
2021/09/17 08:09:34;;;;;;;11.13;7.18;;;;;;;16.78;100.00;94631.44;5053905;28;20071;-58
2021/09/17 08:12:00;;;;;;;11.07;7.45;;;;;;;17.06;100.00;94623.88;5053900;28;20035;-62
2021/09/17 08:14:26;;;;;;;10.15;6.97;;;;;;;17.00;100.00;94633.22;5053867;28;20108;-60
2021/09/17 08:16:58;;;;;;;10.73;7.35;;;;;;;17.01;100.00;94636.72;5053985;28;20451;-60
2021/09/17 08:19:25;;;;;;;10.25;7.25;;;;;;;17.11;100.00;94644.53;5053837;28;20438;-59
2021/09/17 08:21:50;;;;;;;11.48;7.45;;;;;;;17.32;100.00;94655.56;5052543;28;20029;-60
2021/09/17 08:24:19;;;;;;;8.93;7.07;;;;;;;17.52;100.00;94657.63;5053689;28;20495;-56
2021/09/17 08:26:52;;;;;;;8.55;6.80;;;;;;;17.78;100.00;94682.03;5052376;28;20032;-56
2021/09/17 08:29:23;;;;;;;8.73;6.50;;;;;;;17.89;100.00;94701.47;5053521;28;20024;-58
2021/09/17 08:31:59;;;;;;;8.18;6.15;;;;;;;17.98;100.00;94726.66;5052273;28;20032;-58
2021/09/17 08:34:25;;;;;;;8.23;6.88;;;;;;;17.58;100.00;94748.44;5052242;28;20072;-60
2021/09/17 08:36:50;;;;;;;7.45;6.07;;;;;;;17.66;100.00;94742.22;5053056;28;20506;-60
2021/09/17 08:39:18;;;;;;;8.07;6.10;;;;;;;17.96;100.00;94764.91;5052349;28;20055;-62
2021/09/17 08:41:45;;;;;;;8.82;6.60;;;;;;;18.08;100.00;94782.44;5053450;28;20357;-61
2021/09/17 08:44:11;;;;;;;7.22;5.70;;;;;;;18.25;100.00;94820.41;5053357;28;20480;-62
2021/09/17 08:46:41;;;;;;;7.90;6.07;;;;;;;18.50;100.00;94837.75;5053335;28;20146;-60
2021/09/17 08:49:07;;;;;;;7.82;5.90;;;;;;;18.68;100.00;94846.72;5053213;28;20114;-61
2021/09/17 08:51:33;;;;;;;8.68;5.78;;;;;;;18.54;100.00;94869.34;5052013;28;20044;-62
2021/09/17 08:54:01;;;;;;;6.80;5.55;;;;;;;18.49;100.00;94871.44;5053080;28;20025;-59
2021/09/17 08:56:27;;;;;;;6.70;5.82;;;;;;;18.14;100.00;94882.25;5053118;28;20060;-62
2021/09/17 08:59:02;;;;;;;7.57;5.10;;;;;;;18.16;100.00;94890.06;5035281;28;20098;-60
2021/09/17 09:01:33;;;;;;;6.82;5.55;;;;;;;18.54;100.00;94879.38;5052964;28;20035;-58
2021/09/17 09:04:04;;;;;;;6.65;5.13;;;;;;;18.84;100.00;94902.06;5051435;28;20056;-58
2021/09/17 09:06:38;;;;;;;7.63;5.45;;;;;;;18.83;100.00;94936.53;5029676;28;20052;-60
2021/09/17 09:09:18;;;;;;;7.45;5.15;;;;;;;18.88;100.00;94924.72;5042992;28;20112;-55
2021/09/17 09:11:48;;;;;;;7.10;5.03;;;;;;;19.08;100.00;94921.34;5047410;28;20028;-59
2021/09/17 09:14:15;;;;;;;8.02;5.00;;;;;;;19.42;100.00;94939.47;5046962;28;20037;-59
2021/09/17 09:16:59;;;;;;;6.13;4.93;;;;;;;19.62;100.00;94986.91;5034821;28;20036;-57
2021/09/17 09:19:33;;;;;;;6.88;5.57;;;;;;;19.57;100.00;94995.25;5025018;28;20384;-58
2021/09/17 09:22:02;;;;;;;7.93;5.43;;;;;;;19.31;100.00;95014.25;5037180;28;20028;-55
2021/09/17 09:24:27;;;;;;;6.25;5.00;;;;;;;19.03;100.00;95015.72;5032448;28;20049;-58
2021/09/17 09:27:19;;;;;;;5.78;5.05;;;;;;;19.07;100.00;95005.81;5052471;28;20071;-60
2021/09/17 09:29:47;;;;;;;5.50;4.80;;;;;;;19.18;100.00;94990.00;5052387;28;20037;-56
2021/09/17 09:32:29;;;;;;;6.65;5.13;;;;;;;19.37;100.00;95006.75;5052525;28;20024;-59
2021/09/17 09:34:56;;;;;;;8.90;5.47;;;;;;;19.47;100.00;95000.19;5052427;28;20515;-58
2021/09/17 09:37:26;;;;;;;5.35;4.40;;;;;;;19.05;100.00;95013.50;5052479;28;20024;-60
2021/09/17 09:40:04;;;;;;;5.68;4.32;;;;;;;18.31;100.00;94984.50;5052379;28;20499;-60
2021/09/17 09:42:33;;;;;;;5.47;4.05;;;;;;;17.72;100.00;94991.31;5052498;28;20021;-59
2021/09/17 09:45:20;;;;;;;4.32;3.42;;;;;;;17.57;100.00;94952.66;5052267;28;20029;-60
2021/09/17 09:47:47;;;;;;;4.72;3.40;;;;;;;18.04;100.00;94960.38;5042047;28;20027;-58
2021/09/17 09:50:21;;;;;;;4.93;3.67;;;;;;;18.72;100.00;94977.88;5050955;28;20021;-59
2021/09/17 09:52:47;;;;;;;4.93;3.58;;;;;;;18.77;100.00;95013.00;5052331;28;20040;-58
2021/09/17 09:55:12;;;;;;;4.63;3.92;;;;;;;18.53;100.00;95049.47;5052179;28;20387;-57
2021/09/17 09:57:41;;;;;;;5.05;3.42;;;;;;;18.02;100.00;95011.34;5034293;28;20044;-58
2021/09/17 10:00:09;;;;;;;4.47;3.40;;;;;;;17.91;100.00;94994.59;5052105;28;20025;-59
2021/09/17 10:02:36;;;;;;;3.97;3.58;;;;;;;18.47;100.00;94985.66;5034589;28;20033;-58
2021/09/17 10:05:06;;;;;;;3.20;2.90;;;;;;;18.74;100.00;95021.78;5038643;28;20128;-60
2021/09/17 10:07:32;;;;;;;3.20;2.90;;;;;;;19.15;100.00;95024.03;5052467;28;20414;-55
2021/09/17 10:09:58;;;;;;;4.35;3.08;;;;;;;19.63;100.00;95031.19;5052035;28;20032;-54
2021/09/17 10:12:26;;;;;;;7.57;3.40;;;;;;;19.49;100.00;95082.16;5034155;28;20107;-56
2021/09/17 10:14:55;;;;;;;6.63;4.07;;;;;;;19.87;100.00;95053.19;5034048;28;20033;-57
2021/09/17 10:17:26;;;;;;;3.28;2.90;;;;;;;19.81;100.00;95117.00;5051897;28;20025;-55
2021/09/17 10:19:54;;;;;;;3.85;3.25;;;;;;;20.04;100.00;95116.78;5051842;28;20025;-59
2021/09/17 10:22:30;;;;;;;4.50;3.72;;;;;;;19.80;100.00;95117.31;5033770;28;20020;-58
2021/09/17 10:25:19;;;;;;;5.65;3.67;;;;;;;19.47;100.00;95111.56;5030878;28;20140;-55
2021/09/17 10:28:00;;;;;;;4.93;3.40;;;;;;;18.77;100.00;95091.69;5048929;28;20029;-54
2021/09/17 10:30:29;;;;;;;3.75;3.20;;;;;;;18.53;100.00;95054.09;5031818;28;20079;-57
2021/09/17 10:32:55;;;;;;;4.45;3.20;;;;;;;18.83;100.00;95042.38;5050925;28;20037;-58
2021/09/17 10:35:27;;;;;;;4.45;3.40;;;;;;;19.25;100.00;95039.19;5050809;28;20048;-63
2021/09/17 10:38:01;;;;;;;3.97;3.13;;;;;;;19.62;100.00;95060.25;5051441;28;20024;-62
2021/09/17 10:40:35;;;;;;;5.68;3.35;;;;;;;19.83;100.00;95040.56;5050423;28;20413;-62
2021/09/17 10:43:28;;;;;;;7.32;3.15;;;;;;;20.30;100.00;95060.41;5050340;28;20036;-62
2021/09/17 10:45:59;;;;;;;4.75;3.58;;;;;;;20.25;100.00;95098.66;5051637;28;20032;-62
2021/09/17 10:48:52;;;;;;;4.53;3.40;;;;;;;20.32;100.00;95107.09;5050353;28;20029;-62
2021/09/17 10:51:37;;;;;;;3.50;2.65;;;;;;;20.16;100.00;95147.63;5050092;28;20033;-62
2021/09/17 10:54:09;;;;;;;3.53;3.22;;;;;;;20.27;100.00;95138.00;5051678;28;20484;-62
2021/09/17 10:56:47;;;;;;;;;;;;;;;20.34;100.00;95150.31;5050856;28;20064;-61
2021/09/17 10:59:41;;;;;;;3.58;3.22;;;;;;;20.53;100.00;95145.31;5052563;28;19952;-62
2021/09/17 11:02:08;;;;;;;4.07;2.78;;;;;;;20.91;100.00;95123.50;5055313;28;20134;-61
2021/09/17 11:04:59;;;;;;;3.35;3.05;;;;;;;20.81;100.00;95151.91;5037819;28;20095;-62
2021/09/17 11:07:32;;;;;;;3.25;2.90;;;;;;;21.03;100.00;95142.66;5041990;28;20045;-62
2021/09/17 11:09:58;;;;;;;3.72;3.33;;;;;;;21.18;100.00;95160.34;5055112;28;20029;-62
2021/09/17 11:12:38;;;;;;;4.93;3.40;;;;;;;20.78;100.00;95204.28;5054983;28;20116;-61
2021/09/17 11:15:03;;;;;;;4.95;2.83;;;;;;;20.95;100.00;95178.91;5054957;28;20029;-62
2021/09/17 11:17:53;;;;;;;3.83;3.17;;;;;;;21.13;100.00;95168.72;5054874;28;20091;-61
2021/09/17 11:20:26;;;;;;;3.58;2.88;;;;;;;20.85;100.00;95203.78;5037130;28;20029;-59
2021/09/17 11:22:51;;;;;;;3.42;2.78;;;;;;;21.01;100.00;95196.66;5055064;28;20021;-62